Berlin, NH

11:42 AM EST on March 02, 2015 (GMT -0500)
Norwegian village | Change Station
CLOSE
Current Station
Personal Weather Station
Location: Berlin, NH
Elevation: 1099 ft
Nearby Weather Stations

Elev 1099 ft 44.48 °N, 71.17 °W | Updated 30 seconds ago

Snow
Snow
26.2 °F
Feels Like 26 °F
N
0.7
Wind Variable Wind from West
Gusts 2.2 mph

Today
High -- | Low -- °F
--% Chance of Precip.
Yesterday
High -- | Low -- °F
Precip. -- in
6:20 AM 5:33 PM
Waxing Gibbous, 92% visible
Pressure 29.90 in
Visibility 3.0 miles
Clouds Few 2500 ft
Mostly Cloudy 3000 ft
Overcast 3700 ft
Windchill 26 °F
Dew Point 10 °F
Humidity 49%
Rainfall 0.00 in
Snow Depth Not available.
UV 1 out of 12
Pollen .40 out of 12
Air Quality Not available.
Flu Activity Not available.
METAR KBML 021552Z AUTO 30008G17KT 3SM -SN FEW025 BKN030 OVC037 M04/M10 A2984 RMK AO2 SLP123 P0000 T10441100

More Conditions Fewer Conditions

Pressure 29.90 in
Visibility 3.0 miles
Clouds Few 2500 ft
Mostly Cloudy 3000 ft
Overcast 3700 ft
Windchill 26 °F
Dew Point 10 °F
Humidity 49%
Rainfall 0.00 in
Snow Depth Not available.
UV 1 out of 12
Pollen .40 out of 12
Air Quality Not available.
Flu Activity Not available.
METAR KBML 021552Z AUTO 30008G17KT 3SM -SN FEW025 BKN030 OVC037 M04/M10 A2984 RMK AO2 SLP123 P0000 T10441100

More Conditions Fewer Conditions

10-Day Weather Forecast

Almanac

Astronomy

Mar. 02, 2015 Rise Set
Actual Time
Civil Twilight
Nautical Twilight
Astronomical Twilight
Moon
Length of Visible Light
Length of Day
Tomorrow will be .
, % of the Moon is Illuminated

Today's Extremes

State Highs State Lows

Community

WunderPhotos

Upload Photos

1,801,837 photos uploaded!

WunderBlogs® & News

Nearby

Air Quality

  Air Quality AQ Index Pollutant
Not available.

Snow Depth

Station Depth Elevation

Earthquake Activity

City Distance Mag. Time & Date
Minimum magnitude displayed is 2.5.

Coastal Water Temperatures

Place Temperature

Nearby Weather Stations